Latest Coastal Weather Observations for Geelong Racecourse

IDV60701

Issued at 4:21 pm EDT Thursday 23 November 2017 (issued every 10 minutes, with the page automatically refreshed every 10 minutes)

About coastal observations | Map of coastal stations | Coastal observations for VIC | Marine services | Other Formats
Station Details ID: 087184 Name: GEELONG RACECOURSE Lat: -38.17 Lon: 144.38 Height: 12.9 m
Data from the previous 72 hours. | See also: Recent months at Geelong Racecourse
Date/Time
EDT
Temp
°C
Wind Pressure Rain since
9am
mm
Weather Cloud Vis
km
Sea
Height
m
Swell
Dir  Spd
kts
Gust
kts
hPa Trend Height
m
Period
s
Dir
23/04:00pm 29.5 SSE 6 9 1008.3 - 0.0 - - - - - - -
23/03:30pm 29.6 ESE 5 7 1008.5 - 0.0 - - - - - - -
23/03:00pm 26.4 SE 6 10 1009.4 - 0.0 - - - - - - -
23/02:30pm 24.5 SSE 12 17 1009.5 - 0.0 - - - - - - -
23/02:19pm 26.0 S 12 20 1009.5 - 0.0 - - - - - - -
23/02:00pm 31.0 NE 5 15 1009.6 - 0.0 - - - - - - -
23/01:30pm 31.6 NNW 5 9 1009.5 - 0.0 - - - - - - -
23/01:00pm 30.5 NW 2 4 1009.7 - 0.0 - - - - - - -
23/12:30pm 29.3 NNE 3 6 1010.3 - 0.0 - - - - - - -
23/12:00pm 27.4 NE 6 8 1010.6 - 0.0 - - - - - - -
23/11:30am 26.7 NE 5 8 1010.9 - 0.0 - - - - - - -
23/11:00am 25.3 NE 2 5 1011.1 - 0.0 - - - - - - -
23/10:30am 24.1 SSE 3 4 1011.2 - 0.0 - - - - - - -
23/10:00am 22.0 SSE 3 5 1011.5 - 0.0 - - - - - - -
23/09:30am 21.2 SSE 4 6 1011.8 - 0.0 - - - - - - -
23/09:00am 19.9 SSE 4 6 1011.9 - 0.0 - - - - - - -
23/08:30am 19.0 S 6 8 1011.9 - 0.0 - - - - - - -
23/08:00am 18.1 S 5 7 1011.9 - 0.0 - - - - - - -
23/07:30am 17.3 SSW 7 8 1011.7 - 0.0 - - - - - - -
23/07:00am 16.3 SSW 5 6 1011.8 - 0.0 - - - - - - -
23/06:30am 15.1 SSW 3 3 1011.7 - 0.0 - - - - - - -
23/06:00am 14.7 SW 4 5 1011.4 - 0.0 - - - - - - -
23/05:30am 14.7 SSW 4 5 1011.2 - 0.0 - - - - - - -
23/05:00am 14.9 SW 4 5 1011.2 - 0.0 - - - - - - -
23/04:30am 14.5 SW 4 5 1011.2 - 0.0 - - - - - - -
23/04:00am 15.0 SSW 4 5 1011.4 - 0.0 - - - - - - -
23/03:30am 15.2 SSW 4 5 1011.5 - 0.0 - - - - - - -
23/03:00am 15.4 SW 5 6 1011.7 - 0.0 - - - - - - -
23/02:30am 15.6 SSW 5 7 1011.9 - 0.0 - - - - - - -
23/02:00am 15.5 SSW 5 7 1012.0 - 0.0 - - - - - - -
23/01:30am 15.5 SSW 5 7 1012.3 - 0.0 - - - - - - -
23/01:00am 15.7 SW 5 6 1012.6 - 0.0 - - - - - - -
23/12:30am 15.8 SSW 5 7 1012.8 - 0.0 - - - - - - -
23/12:00am 16.1 SSW 4 6 1013.1 - 0.0 - - - - - - -
 
Date/Time
EDT
Temp
°C
Wind Pressure Rain since
9am
mm
Weather Cloud Vis
km
Sea
Height
m
Swell
Dir  Spd
kts
Gust
kts
hPa Trend Height
m
Period
s
Dir
22/11:30pm 16.5 SW 5 7 1013.1 - 0.0 - - - - - - -
22/11:00pm 16.7 SSW 6 8 1013.2 - 0.0 - - - - - - -
22/10:30pm 17.1 SSW 6 8 1013.5 - 0.0 - - - - - - -
22/10:00pm 17.7 SSW 6 8 1013.3 - 0.0 - - - - - - -
22/09:30pm 18.0 SSW 7 9 1013.1 - 0.0 - - - - - - -
22/09:00pm 18.5 SSW 8 11 1013.1 - 0.0 - - - - - - -
22/08:30pm 19.2 SSW 8 11 1013.1 - 0.0 - - - - - - -
22/08:00pm 20.2 SSW 9 12 1013.1 - 0.0 - - - - - - -
22/07:30pm 21.3 SSW 9 11 1012.9 - 0.0 - - - - - - -
22/07:00pm 24.3 S 10 13 1012.7 - 0.0 - - - - - - -
22/06:30pm 26.1 SSE 9 13 1012.7 - 0.0 - - - - - - -
22/06:00pm 27.0 SE 10 15 1012.4 - 0.0 - - - - - - -
22/05:30pm 27.9 SE 10 15 1012.4 - 0.0 - - - - - - -
22/05:00pm 28.4 SE 11 14 1012.5 - 0.0 - - - - - - -
22/04:30pm 28.7 SE 12 17 1012.7 - 0.0 - - - - - - -
22/04:00pm 29.7 SSE 11 15 1012.8 - 0.0 - - - - - - -
22/03:30pm 31.7 SE 9 13 1013.0 - 0.0 - - - - - - -
22/03:00pm 32.5 ENE 7 11 1013.3 - 0.0 - - - - - - -
22/02:30pm 32.2 ENE 9 13 1013.7 - 0.0 - - - - - - -
22/02:00pm 32.0 ENE 9 13 1014.0 - 0.0 - - - - - - -
22/01:30pm 31.7 NE 9 12 1014.4 - 0.0 - - - - - - -
22/01:00pm 31.6 ENE 9 12 1014.7 - 0.0 - - - - - - -
22/12:30pm 31.1 ENE 9 12 1015.0 - 0.0 - - - - - - -
22/12:00pm 30.9 NE 7 11 1015.1 - 0.0 - - - - - - -
22/11:30am 30.6 NE 6 9 1015.3 - 0.0 - - - - - - -
22/11:00am 29.6 NE 4 6 1015.4 - 0.0 - - - - - - -
22/10:30am 27.2 NNE 5 7 1015.6 - 0.0 - - - - - - -
22/10:00am 26.3 NNE 5 7 1015.7 - 0.0 - - - - - - -
22/09:30am 24.1 NNE 5 7 1016.1 - 0.0 - - - - - - -
22/09:00am 23.4 NNE 7 10 1016.3 - 0.0 - - - - - - -
22/08:30am 22.8 NE 6 10 1016.3 - 0.0 - - - - - - -
22/08:00am 22.4 NE 5 8 1016.3 - 0.0 - - - - - - -
22/07:30am 21.2 NE 4 5 1016.0 - 0.0 - - - - - - -
22/07:00am 18.9 CALM 0 0 1016.0 - 0.0 - - - - - - -
22/06:30am 17.6 CALM 0 1 1015.9 - 0.0 - - - - - - -
22/06:00am 16.8 N 1 1 1015.8 - 0.0 - - - - - - -
22/05:30am 17.8 CALM 0 0 1015.7 - 0.0 - - - - - - -
22/05:00am 18.8 N 1 2 1015.6 - 0.0 - - - - - - -
22/04:30am 19.5 ENE 4 5 1015.5 - 0.0 - - - - - - -
22/04:00am 20.2 ENE 4 5 1015.6 - 0.0 - - - - - - -
22/03:30am 21.0 ENE 5 9 1015.7 - 0.0 - - - - - - -
22/03:00am 21.3 NE 6 10 1015.9 - 0.0 - - - - - - -
22/02:30am 21.4 NNE 5 8 1016.0 - 0.0 - - - - - - -
22/02:00am 21.8 NNE 5 8 1016.2 - 0.0 - - - - - - -
22/01:30am 20.6 NNE 3 6 1016.4 - 0.0 - - - - - - -
22/01:00am 20.3 W 2 3 1016.6 - 0.0 - - - - - - -
22/12:30am 20.3 W 1 2 1016.7 - 0.0 - - - - - - -
22/12:00am 21.0 WSW 1 3 1016.8 - 0.0 - - - - - - -
 
Date/Time
EDT
Temp
°C
Wind Pressure Rain since
9am
mm
Weather Cloud Vis
km
Sea
Height
m
Swell
Dir  Spd
kts
Gust
kts
hPa Trend Height
m
Period
s
Dir
21/11:30pm 23.4 SSE 2 4 1016.9 - 0.0 - - - - - - -
21/11:00pm 23.9 E 2 5 1017.1 - 0.0 - - - - - - -
21/10:30pm 23.3 WSW 1 3 1017.3 - 0.0 - - - - - - -
21/10:00pm 23.0 SSW 3 4 1017.2 - 0.0 - - - - - - -
21/09:30pm 24.7 SE 2 7 1017.0 - 0.0 - - - - - - -
21/09:00pm 23.9 SW 3 4 1016.9 - 0.0 - - - - - - -
21/08:30pm 24.9 SW 2 3 1016.8 - 0.0 - - - - - - -
21/08:00pm 26.7 SE 5 8 1016.7 - 0.0 - - - - - - -
21/07:30pm 27.9 ESE 7 12 1016.5 - 0.0 - - - - - - -
21/07:00pm 29.3 ESE 8 14 1016.4 - 0.0 - - - - - - -
21/06:30pm 30.1 ESE 8 13 1016.2 - 0.0 - - - - - - -
21/06:00pm 29.7 SE 8 12 1016.2 - 0.0 - - - - - - -
21/05:30pm 29.9 SE 9 13 1016.4 - 0.0 - - - - - - -
21/05:00pm 30.4 SE 8 11 1016.7 - 0.0 - - - - - - -
21/04:30pm 30.6 ESE 9 13 1016.7 - 0.0 - - - - - - -
21/04:00pm 30.4 SE 10 15 1016.9 - 0.0 - - - - - - -
21/03:30pm 31.1 E 7 13 1017.2 - 0.0 - - - - - - -
21/03:00pm 32.4 ENE 4 8 1017.5 - 0.0 - - - - - - -
21/02:30pm 31.6 NE 3 5 1018.0 - 0.0 - - - - - - -
21/02:00pm 30.6 NE 4 6 1018.3 - 0.0 - - - - - - -
21/01:30pm 30.1 ENE 6 9 1018.7 - 0.0 - - - - - - -
21/01:00pm 29.6 ENE 7 9 1019.0 - 0.0 - - - - - - -
21/12:30pm 29.1 NE 6 9 1019.3 - 0.0 - - - - - - -
21/12:00pm 30.3 ENE 4 8 1019.5 - 0.0 - - - - - - -
21/11:30am 28.9 ENE 4 7 1019.8 - 0.0 - - - - - - -
21/11:00am 27.1 ENE 3 5 1020.2 - 0.0 - - - - - - -
21/10:30am 26.1 NNE 3 6 1020.4 - 0.0 - - - - - - -
21/10:00am 25.0 NNE 3 5 1020.6 - 0.0 - - - - - - -
21/09:30am 23.6 NE 3 5 1020.7 - 0.0 - - - - - - -
21/09:00am 22.0 NNE 3 5 1020.8 - 0.0 - - - - - - -
21/08:30am 21.4 CALM 0 0 1020.9 - 0.0 - - - - - - -
21/08:00am 18.9 CALM 0 0 1020.8 - 0.0 - - - - - - -
21/07:30am 17.6 CALM 0 1 1020.7 - 0.0 - - - - - - -
21/07:00am 17.3 CALM 0 1 1020.5 - 0.0 - - - - - - -
21/06:30am 15.2 WNW 2 2 1020.1 - 0.0 - - - - - - -
21/06:00am 15.8 SW 1 2 1019.8 - 0.0 - - - - - - -
21/05:30am 15.6 SW 1 1 1019.5 - 0.0 - - - - - - -
21/05:00am 15.4 SW 2 2 1019.3 - 0.0 - - - - - - -
21/04:30am 15.9 SW 1 2 1019.3 - 0.0 - - - - - - -
21/04:00am 16.4 SW 2 2 1019.6 - 0.0 - - - - - - -
21/03:30am 16.3 SSW 3 3 1019.5 - 0.0 - - - - - - -
21/03:00am 16.7 SSW 4 5 1019.5 - 0.0 - - - - - - -
21/02:30am 16.7 SSW 3 4 1019.7 - 0.0 - - - - - - -
21/02:00am 16.7 SSW 3 4 1019.8 - 0.0 - - - - - - -
21/01:30am 17.1 SSW 3 5 1020.0 - 0.0 - - - - - - -
21/01:00am 17.4 SSW 3 3 1020.1 - 0.0 - - - - - - -
21/12:30am 17.6 SSW 3 4 1020.4 - 0.0 - - - - - - -
21/12:00am 18.1 SW 2 3 1020.6 - 0.0 - - - - - - -
 
Date/Time
EDT
Temp
°C
Wind Pressure Rain since
9am
mm
Weather Cloud Vis
km
Sea
Height
m
Swell
Dir  Spd
kts
Gust
kts
hPa Trend Height
m
Period
s
Dir
20/11:30pm 18.1 SSW 4 5 1020.6 - 0.0 - - - - - - -
20/11:00pm 18.6 SW 2 3 1020.8 - 0.0 - - - - - - -
20/10:30pm 18.6 WSW 3 4 1020.9 - 0.0 - - - - - - -
20/10:00pm 19.0 SW 5 6 1020.9 - 0.0 - - - - - - -
20/09:30pm 19.0 WSW 4 5 1020.7 - 0.0 - - - - - - -
20/09:00pm 19.5 SSW 4 5 1020.5 - 0.0 - - - - - - -
20/08:30pm 20.7 SSW 6 8 1020.5 - 0.0 - - - - - - -
20/08:00pm 22.7 S 7 9 1020.2 - 0.0 - - - - - - -
20/07:30pm 24.1 SSE 8 11 1019.9 - 0.0 - - - - - - -
20/07:00pm 25.0 SSE 9 14 1019.6 - 0.0 - - - - - - -
20/06:30pm 26.2 SSE 10 15 1019.3 - 0.0 - - - - - - -
20/06:00pm 26.1 SSE 11 15 1019.3 - 0.0 - - - - - - -
20/05:30pm 26.2 SSE 12 17 1019.2 - 0.0 - - - - - - -
20/05:00pm 27.8 SE 12 17 1019.1 - 0.0 - - - - - - -
20/04:30pm 29.7 ESE 8 18 1019.1 - 0.0 - - - - - - -

Other Formats:

Comma delimited format used in spreadsheet applications
http://www.bom.gov.au/fwo/IDV60701/IDV60701.94857.axf

JavaScript Object Notation format (JSON) in row-major order
http://www.bom.gov.au/fwo/IDV60701/IDV60701.94857.json